createdAt,value
2023-03-14T00:00:00.586Z,8.17
2023-03-14T00:02:27.631Z,8.16
2023-03-14T00:04:56.845Z,8.10
2023-03-14T00:07:25.006Z,8.16
2023-03-14T00:09:51.773Z,8.20
2023-03-14T00:12:17.626Z,8.22
2023-03-14T00:14:44.167Z,8.34
2023-03-14T00:17:09.957Z,8.24
2023-03-14T00:19:35.838Z,8.19
2023-03-14T00:22:01.757Z,8.17
2023-03-14T00:24:27.675Z,8.15
2023-03-14T00:26:53.489Z,8.22
2023-03-14T00:29:19.295Z,8.20
2023-03-14T00:31:45.208Z,8.27
2023-03-14T00:34:11.182Z,8.28
2023-03-14T00:36:36.973Z,8.22
2023-03-14T00:39:02.947Z,8.21
2023-03-14T00:41:28.838Z,8.22
2023-03-14T00:43:54.690Z,8.25
2023-03-14T00:46:20.574Z,8.24
2023-03-14T00:48:46.677Z,8.26
2023-03-14T00:51:14.248Z,8.29
2023-03-14T00:53:40.179Z,8.24
2023-03-14T00:56:09.126Z,8.27
2023-03-14T00:58:35.261Z,8.22
2023-03-14T01:01:07.415Z,8.29
2023-03-14T01:03:33.349Z,8.23
2023-03-14T01:06:17.654Z,8.21
2023-03-14T01:08:44.588Z,8.25
2023-03-14T01:11:13.250Z,8.19
2023-03-14T01:13:39.306Z,8.17
2023-03-14T01:16:08.448Z,8.21
2023-03-14T01:18:37.291Z,8.18
2023-03-14T01:21:09.477Z,8.20
2023-03-14T01:23:35.291Z,8.11
2023-03-14T01:26:01.116Z,8.10
2023-03-14T01:28:26.946Z,7.94
2023-03-14T01:30:52.758Z,7.89
2023-03-14T01:33:18.592Z,7.95
2023-03-14T01:35:44.407Z,7.94
2023-03-14T01:38:10.312Z,8.01
2023-03-14T01:40:43.348Z,7.84
2023-03-14T01:43:18.778Z,7.86
2023-03-14T01:46:06.280Z,7.84
2023-03-14T01:49:04.270Z,7.89
2023-03-14T01:51:32.947Z,7.81
2023-03-14T01:54:27.019Z,7.30
2023-03-14T01:57:05.149Z,6.60
2023-03-14T01:59:33.046Z,6.36
2023-03-14T02:01:59.591Z,6.24
2023-03-14T02:04:30.479Z,6.15
2023-03-14T02:07:17.563Z,6.22
2023-03-14T02:09:44.895Z,6.17
2023-03-14T02:12:12.244Z,6.12
2023-03-14T02:14:38.476Z,6.24
2023-03-14T02:17:07.734Z,6.25
2023-03-14T02:19:52.451Z,6.24
2023-03-14T02:22:18.358Z,6.12
2023-03-14T02:24:54.440Z,6.18
2023-03-14T02:27:20.824Z,6.41
2023-03-14T02:30:17.680Z,6.32
2023-03-14T02:32:50.594Z,6.30
2023-03-14T02:35:22.438Z,6.34
2023-03-14T02:37:54.008Z,6.46
2023-03-14T02:40:20.251Z,6.48
2023-03-14T02:42:46.282Z,6.55
2023-03-14T02:45:12.070Z,6.62
2023-03-14T02:47:43.068Z,6.57
2023-03-14T02:50:13.702Z,6.73
2023-03-14T02:52:39.485Z,6.67
2023-03-14T02:55:06.458Z,6.72
2023-03-14T02:57:32.220Z,6.71
2023-03-14T03:00:03.936Z,6.83
2023-03-14T03:02:30.017Z,6.79
2023-03-14T03:04:55.936Z,6.71
2023-03-14T03:07:21.832Z,6.73
2023-03-14T03:09:47.637Z,6.71
2023-03-14T03:12:16.089Z,6.74
2023-03-14T03:14:41.879Z,6.76
2023-03-14T03:17:07.722Z,6.71
2023-03-14T03:19:34.621Z,6.69
2023-03-14T03:22:00.473Z,6.64
2023-03-14T03:24:26.791Z,6.63
2023-03-14T03:26:53.616Z,6.59
2023-03-14T03:29:19.573Z,6.65
2023-03-14T03:31:45.793Z,6.73
2023-03-14T03:34:12.874Z,6.65
2023-03-14T03:36:38.802Z,6.75
2023-03-14T03:39:04.741Z,6.74
2023-03-14T03:41:31.326Z,6.75
2023-03-14T03:43:57.383Z,6.75
2023-03-14T03:46:23.789Z,6.67
2023-03-14T03:48:55.277Z,6.71
2023-03-14T03:51:21.087Z,6.64
2023-03-14T03:53:46.903Z,6.62
2023-03-14T03:56:12.769Z,6.68
2023-03-14T03:58:39.279Z,6.67
2023-03-14T04:01:07.168Z,6.83
2023-03-14T04:03:33.533Z,6.81
2023-03-14T04:06:05.649Z,6.82
2023-03-14T04:08:31.714Z,6.75
2023-03-14T04:10:58.769Z,6.78
2023-03-14T04:13:25.168Z,6.77
2023-03-14T04:15:51.639Z,6.84
2023-03-14T04:18:17.715Z,6.86
2023-03-14T04:20:43.634Z,6.87
2023-03-14T04:23:09.747Z,6.83
2023-03-14T04:25:35.648Z,6.74
2023-03-14T04:28:01.836Z,6.70
2023-03-14T04:30:27.924Z,6.77
2023-03-14T04:32:53.777Z,6.79
2023-03-14T04:35:19.614Z,6.80
2023-03-14T04:37:49.260Z,6.67
2023-03-14T04:40:18.284Z,6.70
2023-03-14T04:42:44.527Z,6.71
2023-03-14T04:45:10.408Z,6.80
2023-03-14T04:47:36.262Z,6.80
2023-03-14T04:50:02.481Z,6.83
2023-03-14T04:52:28.297Z,6.77
2023-03-14T04:54:54.146Z,6.72
2023-03-14T04:57:20.083Z,6.72
2023-03-14T04:59:45.916Z,6.71
2023-03-14T05:02:11.759Z,6.70
2023-03-14T05:04:37.556Z,6.75
2023-03-14T05:07:03.406Z,6.77
2023-03-14T05:09:29.210Z,6.68
2023-03-14T05:11:55.069Z,6.56
2023-03-14T05:14:20.856Z,6.61
2023-03-14T05:16:46.681Z,6.60
2023-03-14T05:19:12.603Z,6.63
2023-03-14T05:21:38.424Z,6.70
2023-03-14T05:24:04.543Z,6.68
2023-03-14T05:26:30.478Z,6.69
2023-03-14T05:28:56.291Z,6.77
2023-03-14T05:31:22.216Z,6.74
2023-03-14T05:33:48.072Z,6.79
2023-03-14T05:36:13.933Z,6.76
2023-03-14T05:38:39.744Z,6.69
2023-03-14T05:41:05.774Z,6.73
2023-03-14T05:43:31.565Z,6.74
2023-03-14T05:45:57.695Z,6.72
2023-03-14T05:48:23.716Z,6.69
2023-03-14T05:50:55.735Z,6.68
2023-03-14T05:53:21.625Z,6.71
2023-03-14T05:55:47.416Z,6.62
2023-03-14T05:58:13.238Z,6.72
2023-03-14T06:00:39.056Z,6.57
2023-03-14T06:03:07.217Z,6.61
2023-03-14T06:05:33.377Z,6.59
2023-03-14T06:07:59.238Z,6.63
2023-03-14T06:10:25.033Z,6.53
2023-03-14T06:12:50.864Z,6.56
2023-03-14T06:15:16.678Z,6.53
2023-03-14T06:17:42.508Z,6.51
2023-03-14T06:20:09.656Z,6.58
2023-03-14T06:22:35.483Z,6.61
2023-03-14T06:25:01.339Z,6.48
2023-03-14T06:27:27.452Z,6.48
2023-03-14T06:29:53.257Z,6.54
2023-03-14T06:32:19.694Z,6.49
2023-03-14T06:34:45.550Z,6.51
2023-03-14T06:37:11.716Z,6.61
2023-03-14T06:39:38.883Z,6.74
2023-03-14T06:42:05.037Z,6.72
2023-03-14T06:44:30.853Z,6.69
2023-03-14T06:46:56.681Z,6.74
2023-03-14T06:49:22.662Z,6.70
2023-03-14T06:51:48.676Z,6.77
2023-03-14T06:54:14.558Z,6.77
2023-03-14T06:56:40.435Z,6.79
2023-03-14T06:59:06.471Z,6.80
2023-03-14T07:01:38.306Z,6.81
2023-03-14T07:04:04.342Z,6.63
2023-03-14T07:06:30.342Z,6.57
2023-03-14T07:08:56.945Z,6.65
2023-03-14T07:11:23.139Z,6.57
2023-03-14T07:13:49.136Z,6.62
2023-03-14T07:16:15.222Z,6.64
2023-03-14T07:18:41.109Z,6.71
2023-03-14T07:21:09.423Z,6.71
2023-03-14T07:23:35.511Z,6.79
2023-03-14T07:26:01.910Z,6.73
2023-03-14T07:28:28.160Z,6.79
2023-03-14T07:30:54.716Z,6.81
2023-03-14T07:33:20.804Z,6.82
2023-03-14T07:35:50.418Z,6.80
2023-03-14T07:38:17.137Z,6.80
2023-03-14T07:40:43.030Z,6.77
2023-03-14T07:43:08.883Z,6.71
2023-03-14T07:45:42.465Z,6.78
2023-03-14T07:48:08.851Z,6.90
2023-03-14T07:50:34.646Z,6.92
2023-03-14T07:53:00.433Z,6.98
2023-03-14T07:55:26.225Z,7.06
2023-03-14T07:57:52.188Z,6.96
2023-03-14T08:00:18.526Z,7.04
2023-03-14T08:02:44.414Z,7.04
2023-03-14T08:05:10.912Z,6.96
2023-03-14T08:07:36.787Z,6.94
2023-03-14T08:10:03.336Z,6.86
2023-03-14T08:12:29.207Z,6.90
2023-03-14T08:14:54.988Z,6.87
2023-03-14T08:17:20.870Z,7.02
2023-03-14T08:19:46.620Z,7.09
2023-03-14T08:22:12.492Z,7.07
2023-03-14T08:24:38.356Z,7.00
2023-03-14T08:27:04.325Z,6.99
2023-03-14T08:29:30.134Z,7.08
2023-03-14T08:31:56.089Z,7.11
2023-03-14T08:34:22.010Z,7.14
2023-03-14T08:36:47.877Z,7.10
2023-03-14T08:39:13.943Z,7.13
2023-03-14T08:41:44.004Z,7.22
2023-03-14T08:44:11.780Z,7.31
2023-03-14T08:46:37.761Z,7.35
2023-03-14T08:49:04.021Z,7.27
2023-03-14T08:51:30.056Z,7.18
2023-03-14T08:53:56.087Z,7.26
2023-03-14T08:56:22.936Z,7.27
2023-03-14T08:58:49.633Z,7.44
2023-03-14T09:01:15.525Z,7.50
2023-03-14T09:03:41.504Z,7.52
2023-03-14T09:06:10.133Z,7.44
2023-03-14T09:08:39.222Z,7.47
2023-03-14T09:11:08.972Z,7.60
2023-03-14T09:13:35.822Z,7.55
2023-03-14T09:16:01.762Z,7.44
2023-03-14T09:18:27.630Z,7.64
2023-03-14T09:20:53.699Z,7.63
2023-03-14T09:23:19.556Z,7.55
2023-03-14T09:25:45.435Z,7.62
2023-03-14T09:28:11.286Z,7.63
2023-03-14T09:30:37.045Z,7.70
2023-03-14T09:33:03.058Z,7.60
2023-03-14T09:35:29.160Z,7.66
2023-03-14T09:37:55.210Z,7.60
2023-03-14T09:40:23.919Z,7.61
2023-03-14T09:42:54.460Z,7.68
2023-03-14T09:45:26.223Z,7.67
2023-03-14T09:47:59.543Z,7.59
2023-03-14T09:50:30.127Z,7.63
2023-03-14T09:53:03.593Z,7.62
2023-03-14T09:55:29.408Z,7.64
2023-03-14T09:58:00.342Z,7.59
2023-03-14T10:00:29.137Z,7.43
2023-03-14T10:03:02.659Z,7.32
2023-03-14T10:05:31.440Z,7.25
2023-03-14T10:07:57.325Z,7.28
2023-03-14T10:10:25.714Z,7.16
2023-03-14T10:12:59.807Z,7.34
2023-03-14T10:15:31.349Z,7.30
2023-03-14T10:17:59.972Z,7.24
2023-03-14T10:20:38.083Z,7.19
2023-03-14T10:23:10.227Z,7.31
2023-03-14T10:25:38.605Z,6.93
2023-03-14T10:28:05.499Z,6.64
2023-03-14T10:30:31.461Z,6.68
2023-03-14T10:32:57.509Z,6.60
2023-03-14T10:35:23.946Z,6.48
2023-03-14T10:37:56.153Z,6.44
2023-03-14T10:40:28.617Z,6.34
2023-03-14T10:42:55.661Z,6.14
2023-03-14T10:45:32.671Z,6.10
2023-03-14T10:48:07.534Z,6.12
2023-03-14T10:50:35.713Z,6.18
2023-03-14T10:53:06.616Z,5.89
2023-03-14T10:55:50.943Z,5.95
2023-03-14T10:58:30.917Z,5.89
2023-03-14T11:01:06.936Z,5.72
2023-03-14T11:03:36.041Z,5.86
2023-03-14T11:06:12.347Z,5.78
2023-03-14T11:08:50.121Z,5.84
2023-03-14T11:11:28.258Z,5.77
2023-03-14T11:14:14.522Z,5.69
2023-03-14T11:17:01.651Z,5.68
2023-03-14T11:19:49.056Z,5.79
2023-03-14T11:22:43.076Z,5.74
2023-03-14T11:25:39.990Z,5.74
2023-03-14T11:28:22.991Z,5.67
2023-03-14T11:31:00.686Z,5.66
2023-03-14T11:33:54.902Z,5.59
2023-03-14T11:36:27.860Z,5.64
2023-03-14T11:38:57.453Z,5.41
2023-03-14T11:41:29.685Z,5.29
2023-03-14T11:43:58.161Z,5.28
2023-03-14T11:46:30.251Z,5.34
2023-03-14T11:49:34.692Z,5.33
2023-03-14T11:52:05.627Z,5.32
2023-03-14T11:54:35.168Z,5.34
2023-03-14T11:57:12.222Z,5.18
2023-03-14T11:59:42.690Z,5.15
2023-03-14T12:02:30.464Z,5.03
2023-03-14T12:04:56.448Z,5.00
2023-03-14T12:07:51.027Z,5.44
2023-03-14T12:10:16.932Z,5.61
2023-03-14T12:12:43.122Z,5.64
2023-03-14T12:15:27.201Z,5.46
2023-03-14T12:17:55.572Z,4.98
2023-03-14T12:20:25.813Z,4.66
2023-03-14T12:22:58.684Z,4.70
2023-03-14T12:25:27.616Z,4.58
2023-03-14T12:27:56.567Z,4.63
2023-03-14T12:30:27.792Z,4.62
2023-03-14T12:33:09.088Z,4.65
2023-03-14T12:35:39.529Z,4.63
2023-03-14T12:38:29.180Z,4.75
2023-03-14T12:40:59.380Z,4.59
2023-03-14T12:43:33.582Z,4.42
2023-03-14T12:46:17.694Z,4.34
2023-03-14T12:48:47.002Z,4.32
2023-03-14T12:51:37.048Z,4.27
2023-03-14T12:54:20.217Z,4.24
2023-03-14T12:56:59.416Z,4.28
2023-03-14T12:59:34.473Z,4.20
2023-03-14T13:02:06.155Z,4.01
2023-03-14T13:04:39.581Z,4.15
2023-03-14T13:07:12.171Z,4.30
2023-03-14T13:09:51.185Z,4.09
2023-03-14T13:12:23.048Z,4.00
2023-03-14T13:14:51.948Z,4.09
2023-03-14T13:17:36.201Z,4.14
2023-03-14T13:20:12.094Z,4.13
2023-03-14T13:22:39.028Z,4.38
2023-03-14T13:25:11.594Z,4.66
2023-03-14T13:27:38.383Z,4.90
2023-03-14T13:30:20.055Z,5.32
2023-03-14T13:32:47.857Z,5.78
2023-03-14T13:35:28.599Z,6.11
2023-03-14T13:38:16.063Z,6.33
2023-03-14T13:40:45.395Z,6.02
2023-03-14T13:43:13.938Z,5.67
2023-03-14T13:45:55.675Z,5.47
2023-03-14T13:48:23.292Z,5.08
2023-03-14T13:50:55.595Z,5.16
2023-03-14T13:53:21.579Z,5.03
2023-03-14T13:55:47.558Z,4.95
2023-03-14T13:58:21.877Z,4.72
2023-03-14T14:01:04.125Z,4.66
2023-03-14T14:03:38.965Z,4.41
2023-03-14T14:06:25.438Z,4.14
2023-03-14T14:08:51.547Z,3.85
2023-03-14T14:11:50.982Z,3.75
2023-03-14T14:14:30.997Z,3.72
2023-03-14T14:16:59.832Z,3.52
2023-03-14T14:19:28.881Z,3.70
2023-03-14T14:21:54.900Z,3.73
2023-03-14T14:24:24.429Z,3.92
2023-03-14T14:26:58.899Z,4.21
2023-03-14T14:29:34.730Z,4.34
2023-03-14T14:32:13.875Z,4.05
2023-03-14T14:34:50.812Z,3.97
2023-03-14T14:37:43.771Z,3.98
2023-03-14T14:40:15.616Z,3.91
2023-03-14T14:42:42.233Z,4.33
2023-03-14T14:45:15.328Z,4.59
2023-03-14T14:47:53.428Z,4.74
2023-03-14T14:50:53.667Z,4.55
2023-03-14T14:53:24.280Z,4.57
2023-03-14T14:55:52.000Z,5.39
2023-03-14T14:58:35.137Z,5.76
2023-03-14T15:01:24.273Z,6.06
2023-03-14T15:03:52.983Z,5.97
2023-03-14T15:06:19.274Z,5.93
2023-03-14T15:08:47.702Z,5.97
2023-03-14T15:11:23.012Z,5.75
2023-03-14T15:13:49.831Z,5.69
2023-03-14T15:16:21.859Z,5.71
2023-03-14T15:18:59.625Z,5.43
2023-03-14T15:21:27.769Z,5.17
2023-03-14T15:23:54.449Z,5.16
2023-03-14T15:26:26.982Z,5.23
2023-03-14T15:28:53.337Z,5.14
2023-03-14T15:31:21.412Z,5.08
2023-03-14T15:33:47.857Z,5.22
2023-03-14T15:36:35.918Z,5.20
2023-03-14T15:39:03.303Z,5.30
2023-03-14T15:41:29.460Z,5.28
2023-03-14T15:43:55.931Z,5.14
2023-03-14T15:46:22.798Z,5.18
2023-03-14T15:48:50.361Z,5.10
2023-03-14T15:51:17.206Z,4.95
2023-03-14T15:53:43.898Z,4.95
2023-03-14T15:56:13.583Z,4.75
2023-03-14T15:58:40.497Z,4.66
2023-03-14T16:01:11.482Z,4.67
2023-03-14T16:03:38.924Z,4.52
2023-03-14T16:06:05.556Z,4.63
2023-03-14T16:08:31.753Z,4.48
2023-03-14T16:10:59.747Z,4.30
2023-03-14T16:13:26.158Z,4.30
2023-03-14T16:15:59.914Z,4.38
2023-03-14T16:18:28.617Z,4.43
2023-03-14T16:20:56.920Z,4.36
2023-03-14T16:23:23.267Z,4.36
2023-03-14T16:25:49.377Z,4.26
2023-03-14T16:28:15.628Z,4.20
2023-03-14T16:30:41.915Z,4.23
2023-03-14T16:33:12.188Z,4.21
2023-03-14T16:35:41.924Z,4.19
2023-03-14T16:38:08.186Z,4.04
2023-03-14T16:40:34.244Z,4.04
2023-03-14T16:43:16.645Z,4.01
2023-03-14T16:45:42.592Z,3.99
2023-03-14T16:48:08.446Z,4.00
2023-03-14T16:50:34.239Z,3.97
2023-03-14T16:53:01.453Z,3.96
2023-03-14T16:55:27.507Z,3.74
2023-03-14T16:57:53.422Z,3.68
2023-03-14T17:00:19.816Z,3.68
2023-03-14T17:02:45.697Z,3.64
2023-03-14T17:05:11.540Z,3.63
2023-03-14T17:07:37.566Z,3.63
2023-03-14T17:10:03.566Z,3.63
2023-03-14T17:12:29.450Z,3.66
2023-03-14T17:14:57.077Z,3.59
2023-03-14T17:17:22.877Z,3.48
2023-03-14T17:19:48.866Z,3.44
2023-03-14T17:22:23.302Z,3.42
2023-03-14T17:24:50.836Z,3.52
2023-03-14T17:27:19.361Z,3.36
2023-03-14T17:29:46.648Z,3.30
2023-03-14T17:32:14.406Z,3.25
2023-03-14T17:34:40.325Z,3.39
2023-03-14T17:37:06.275Z,3.27
2023-03-14T17:39:32.142Z,3.19
2023-03-14T17:41:58.003Z,3.18
2023-03-14T17:44:23.877Z,3.33
2023-03-14T17:46:49.850Z,3.13
2023-03-14T17:49:15.686Z,3.16
2023-03-14T17:51:43.063Z,3.15
2023-03-14T17:54:08.987Z,3.15
2023-03-14T17:56:34.990Z,3.11
2023-03-14T17:59:02.159Z,3.01
2023-03-14T18:01:28.172Z,3.13
2023-03-14T18:03:55.739Z,3.02
2023-03-14T18:06:23.000Z,2.97
2023-03-14T18:08:50.020Z,3.05
2023-03-14T18:11:16.597Z,3.10
2023-03-14T18:13:43.072Z,2.90
2023-03-14T18:16:14.572Z,2.81
2023-03-14T18:18:47.064Z,2.89
2023-03-14T18:21:15.353Z,2.96
2023-03-14T18:23:41.320Z,2.97
2023-03-14T18:26:07.432Z,2.95
2023-03-14T18:28:33.829Z,2.98
2023-03-14T18:31:06.694Z,2.89
2023-03-14T18:33:38.983Z,3.00
2023-03-14T18:36:06.069Z,2.97
2023-03-14T18:38:32.088Z,2.94
2023-03-14T18:41:05.794Z,2.96
2023-03-14T18:43:33.775Z,2.78
2023-03-14T18:46:00.571Z,2.82
2023-03-14T18:48:26.908Z,2.75
2023-03-14T18:50:52.847Z,2.70
2023-03-14T18:53:18.714Z,2.71
2023-03-14T18:55:44.637Z,2.81
2023-03-14T18:58:10.722Z,2.87
2023-03-14T19:00:37.385Z,2.89
2023-03-14T19:03:03.876Z,2.85
2023-03-14T19:05:30.413Z,2.66
2023-03-14T19:07:59.120Z,2.62
2023-03-14T19:10:25.696Z,2.69
2023-03-14T19:12:51.876Z,2.65
2023-03-14T19:15:17.796Z,2.64
2023-03-14T19:17:43.633Z,2.66
2023-03-14T19:20:10.498Z,2.56
2023-03-14T19:22:36.683Z,2.63
2023-03-14T19:25:03.387Z,2.74
2023-03-14T19:27:29.986Z,2.71
2023-03-14T19:29:55.781Z,2.85
2023-03-14T19:32:21.803Z,2.74
2023-03-14T19:34:47.718Z,2.73
2023-03-14T19:37:13.633Z,2.71
2023-03-14T19:39:39.681Z,2.67
2023-03-14T19:42:05.677Z,2.70
2023-03-14T19:44:31.763Z,2.70
2023-03-14T19:46:57.666Z,2.64
2023-03-14T19:49:23.688Z,2.60
2023-03-14T19:51:50.072Z,2.57
2023-03-14T19:54:15.981Z,2.66
2023-03-14T19:56:41.856Z,2.65
2023-03-14T19:59:07.994Z,2.52
2023-03-14T20:01:34.550Z,2.42
2023-03-14T20:04:03.715Z,2.48
2023-03-14T20:06:30.676Z,2.49
2023-03-14T20:08:58.841Z,2.46
2023-03-14T20:11:24.858Z,2.54
2023-03-14T20:13:50.690Z,2.65
2023-03-14T20:16:16.701Z,2.61
2023-03-14T20:18:42.616Z,2.45
2023-03-14T20:21:12.067Z,2.58
2023-03-14T20:23:39.033Z,2.63
2023-03-14T20:26:04.946Z,2.53
2023-03-14T20:28:31.203Z,2.45
2023-03-14T20:30:57.858Z,2.56
2023-03-14T20:33:24.028Z,2.59
2023-03-14T20:35:58.664Z,2.49
2023-03-14T20:38:25.869Z,2.40
2023-03-14T20:40:52.745Z,2.39
2023-03-14T20:43:18.573Z,2.43
2023-03-14T20:45:51.277Z,2.40
2023-03-14T20:48:17.187Z,2.41
2023-03-14T20:50:45.733Z,2.37
2023-03-14T20:53:11.612Z,2.32
2023-03-14T20:55:37.476Z,2.20
2023-03-14T20:58:03.837Z,2.20
2023-03-14T21:00:30.222Z,2.36
2023-03-14T21:02:55.997Z,2.21
2023-03-14T21:05:23.556Z,2.15
2023-03-14T21:07:49.549Z,2.09
2023-03-14T21:10:15.871Z,2.09
2023-03-14T21:12:41.910Z,2.00
2023-03-14T21:15:08.924Z,2.09
2023-03-14T21:17:34.993Z,2.09
2023-03-14T21:20:00.832Z,2.00
2023-03-14T21:22:28.805Z,2.03
2023-03-14T21:24:57.707Z,1.91
2023-03-14T21:27:23.622Z,1.95
2023-03-14T21:29:49.522Z,1.79
2023-03-14T21:32:15.428Z,1.71
2023-03-14T21:34:41.304Z,1.79
2023-03-14T21:37:07.102Z,1.73
2023-03-14T21:39:32.905Z,1.78
2023-03-14T21:41:58.705Z,1.85
2023-03-14T21:44:24.652Z,1.66
2023-03-14T21:46:50.680Z,1.82
2023-03-14T21:49:17.217Z,1.74
2023-03-14T21:51:46.740Z,1.75
2023-03-14T21:54:14.774Z,1.64
2023-03-14T21:56:41.756Z,1.57
2023-03-14T21:59:08.393Z,1.50
2023-03-14T22:01:34.530Z,1.62
2023-03-14T22:04:00.615Z,1.61
2023-03-14T22:06:28.041Z,1.62
2023-03-14T22:08:56.759Z,1.73
2023-03-14T22:11:24.067Z,1.75
2023-03-14T22:13:50.407Z,1.56
2023-03-14T22:16:16.370Z,1.69
2023-03-14T22:18:42.226Z,1.75
2023-03-14T22:21:08.096Z,1.68
2023-03-14T22:23:33.977Z,1.50
2023-03-14T22:25:59.790Z,1.44
2023-03-14T22:28:25.721Z,1.37
2023-03-14T22:30:51.867Z,1.41
2023-03-14T22:33:18.619Z,1.33
2023-03-14T22:35:49.843Z,1.15
2023-03-14T22:38:15.881Z,1.34
2023-03-14T22:40:42.947Z,1.37
2023-03-14T22:43:09.100Z,1.27
2023-03-14T22:45:34.995Z,1.22
2023-03-14T22:48:00.963Z,1.13
2023-03-14T22:50:27.169Z,1.04
2023-03-14T22:52:53.580Z,1.08
2023-03-14T22:55:19.586Z,1.10
2023-03-14T22:57:45.757Z,0.88
2023-03-14T23:00:13.177Z,0.92
2023-03-14T23:02:40.062Z,0.98
2023-03-14T23:05:06.285Z,1.03
2023-03-14T23:07:32.046Z,1.19
2023-03-14T23:09:57.822Z,1.18
2023-03-14T23:12:23.631Z,1.15
2023-03-14T23:14:49.360Z,1.26
2023-03-14T23:17:15.217Z,1.15
2023-03-14T23:19:41.126Z,1.12
2023-03-14T23:22:08.955Z,1.15
2023-03-14T23:24:35.504Z,1.16
2023-03-14T23:27:01.355Z,1.22
2023-03-14T23:29:27.247Z,1.35
2023-03-14T23:31:53.142Z,1.15
2023-03-14T23:34:19.104Z,1.10
2023-03-14T23:36:45.278Z,1.23
2023-03-14T23:39:11.246Z,1.15
2023-03-14T23:41:37.104Z,1.19
2023-03-14T23:44:03.561Z,1.04
2023-03-14T23:46:30.725Z,1.05
2023-03-14T23:48:57.530Z,1.09
2023-03-14T23:51:23.740Z,1.00
2023-03-14T23:53:49.724Z,1.09
2023-03-14T23:56:16.465Z,1.01
2023-03-14T23:58:42.500Z,1.07
